KOCW/OCW METAR and TAF weather

Enter ICAO airport designator
Station Type Date Time Source
KOCW METAR 2019/10/23 07:55 UTC NOAA

KOCW 230755Z AUTO 28003KT 10SM CLR 16/15 A2993 RMK AO2 T01570152


Station Type Date Time Source
KOCW Decoded METAR 2019/10/23 07:55 UTC NOAA

Washington, Warren Field Airport, NC, United States (KOCW) 35-34-14N 077-02-59W
Oct 23, 2019 - 03:55 AM EDT / 2019.10.23 0755 UTC
Wind: from the W (280 degrees) at 3 MPH (3 KT):0
Visibility: 10 mile(s):0
Sky conditions: clear
Temperature: 60.3 F (15.7 C)
Dew Point: 59.4 F (15.2 C)
Relative Humidity: 96%
Pressure (altimeter): 29.93 in. Hg (1013 hPa)
ob: KOCW 230755Z AUTO 28003KT 10SM CLR 16/15 A2993 RMK AO2 T01570152
cycle: 8

Station Type Date Time Source
KOCW TAF UTC NOAA

Error!

Example: see airport list